Aérodrome :
LOGIN :

S'inscrire | Disclaimer

   EN    FR    IT 

 










Légende :    VFR   VFR Marginal   IFR   IFR Intensif   IFR Très Intensif
Visi : 
Plafond : 
>= 8 km
>= 3000ft
5 à 8 km
1000 à 3000 ft
1500m à 5 km
500 à 1000 ft
800 à 1500m
200 à 500 ft
< 800m
< 200 ft
Symboles :   Orages  Brouillard  Fortes neiges  Fortes précipitations  Vent > 20 kt
SIGMETs :   Divers  Orages  Givrage  Turbulence  Onde Orograph.  Cendres Volcan.






- Altitude de l'aérodrome : 699 ft
- Code IATA : PAD


EDLP - Paderborn Lippstadt

DERNIER METAR :
  • 150250Z 09013KT 9999 BKN017 03/M00 Q1001

METARs EXPIRÉS :
  • 150220Z 09010KT 050V120 9999 BKN017 03/M00 Q1001
  • 150150Z 09011KT 9999 OVC016 03/00 Q1002
  • 150120Z 09010KT 9999 BKN016 03/00 Q1003
  • 150050Z 09010KT 060V120 9999 BKN015 03/00 Q1002
  • 150020Z 09009KT 9999 BKN015 03/00 Q1003

TAF TAF EDLP
Valide du 15 à 00h jusqu'au 16 à 00h UTC


142300Z 1500/1524 10008KT CAVOK
BECMG 1505/1508 BKN010
TEMPO 1507/1511 BKN007
BECMG 1511/1514 SCT020
BECMG 1516/1519 17004KT
BECMG 1520/1523 23005KT
PROB30
TEMPO 1522/1524 4000 BR



MET'MAP, la Météo Aéronautique d'un coup d'oeil ! - Copyright ORBIFLY Décembre 2007 - Disclaimer

ORBIFLY MET'MAP TEAM :

Programmation & Développement : Alexandra Zaïnal
Conception & Développement : Baudouin d'Aumeries
Co-Programmation & Développement : Marc-Olivier Méhu
Soutien technique & logistique : Manuel Goepfert

Contact : metmap@orbifly.com




SOURCES & CREDITS :

   NOAA